Time;durP1;ratioP1;P1;durP2;ratioP2;P2;SDS_P1;SDS_P2;PMS_P1;PMS_P2;Temp;Humidity;BMP_temperature;BMP_pressure;BME280_temperature;BME280_humidity;BME280_pressure;Samples;Min_cycle;Max_cycle;Signal;HPM_P1;HPM_P2
2023/06/24 00:01:31;;;;;;;5.50;4.00;;;;;;;;;;6199961;28;20029;-80
2023/06/24 00:04:31;;;;;;;4.80;3.00;;;;;;;;;;6218499;28;20468;-81
2023/06/24 00:07:32;;;;;;;4.13;2.87;;;;;;;;;;6216934;28;20032;-82
2023/06/24 00:10:32;;;;;;;6.60;3.50;;;;;;;;;;6218826;28;20018;-82
2023/06/24 00:13:33;;;;;;;3.50;3.20;;;;;;;;;;6213562;28;20128;-83
2023/06/24 00:16:36;;;;;;;3.67;2.78;;;;;;;;;;6216245;28;20058;-82
2023/06/24 00:19:37;;;;;;;3.97;2.70;;;;;;;;;;6218702;28;20472;-82
2023/06/24 00:22:43;;;;;;;5.20;3.30;;;;;;;;;;6218107;28;20064;-81
2023/06/24 00:25:43;;;;;;;4.60;3.30;;;;;;;;;;6212574;28;20480;-82
2023/06/24 00:28:44;;;;;;;5.28;2.95;;;;;;;;;;6218284;28;20108;-84
2023/06/24 00:31:44;;;;;;;3.87;2.53;;;;;;;;;;6232305;28;20670;-81
2023/06/24 00:34:47;;;;;;;4.70;2.57;;;;;;;;;;6238944;28;20502;-80
2023/06/24 00:37:47;;;;;;;3.97;2.83;;;;;;;;;;6237133;28;20010;-80
2023/06/24 00:40:47;;;;;;;5.30;3.17;;;;;;;;;;6228990;28;20029;-82
2023/06/24 00:43:48;;;;;;;4.73;3.20;;;;;;;;;;6218597;28;20045;-81
2023/06/24 00:46:49;;;;;;;3.77;2.97;;;;;;;;;;6218746;28;20559;-80
2023/06/24 00:49:50;;;;;;;5.38;2.95;;;;;;;;;;6216915;28;20026;-82
2023/06/24 00:52:50;;;;;;;6.13;2.83;;;;;;;;;;6218527;28;20022;-80
2023/06/24 00:55:52;;;;;;;5.37;3.47;;;;;;;;;;6218666;28;22032;-81
2023/06/24 00:58:52;;;;;;;8.40;3.08;;;;;;;;;;6218067;28;20045;-82
2023/06/24 01:01:53;;;;;;;3.97;2.80;;;;;;;;;;6217211;28;20038;-80
2023/06/24 01:04:54;;;;;;;3.92;2.70;;;;;;;;;;6217323;28;20018;-82
2023/06/24 01:07:55;;;;;;;5.93;3.00;;;;;;;;;;6213426;28;20025;-82
2023/06/24 01:10:55;;;;;;;3.60;2.67;;;;;;;;;;6213522;28;20483;-83
2023/06/24 01:13:55;;;;;;;4.60;2.60;;;;;;;;;;6215955;28;20022;-81
2023/06/24 01:16:59;;;;;;;4.53;2.80;;;;;;;;;;6217699;28;20045;-81
2023/06/24 01:19:59;;;;;;;4.18;3.13;;;;;;;;;;6220415;28;20483;-81
2023/06/24 01:23:22;;;;;;;5.90;2.97;;;;;;;;;;6222204;28;20030;-81
2023/06/24 01:26:33;;;;;;;4.10;3.05;;;;;;;;;;6221893;28;20034;-80
2023/06/24 01:29:45;;;;;;;7.00;3.80;;;;;;;;;;6221545;28;20049;-82
2023/06/24 01:32:50;;;;;;;5.68;3.28;;;;;;;;;;6221219;28;20127;-83
2023/06/24 01:35:51;;;;;;;6.72;2.97;;;;;;;;;;6222166;28;20034;-82
2023/06/24 01:38:55;;;;;;;4.95;2.90;;;;;;;;;;6221519;28;20049;-83
2023/06/24 01:42:00;;;;;;;7.10;3.13;;;;;;;;;;6221510;28;20024;-80
2023/06/24 01:45:00;;;;;;;7.07;4.00;;;;;;;;;;6218117;28;20021;-83
2023/06/24 01:48:02;;;;;;;5.50;3.03;;;;;;;;;;6219417;28;20044;-84
2023/06/24 01:51:10;;;;;;;4.30;3.05;;;;;;;;;;6221677;28;20453;-83
2023/06/24 01:54:13;;;;;;;5.38;3.50;;;;;;;;;;6220933;28;20056;-83
2023/06/24 01:57:15;;;;;;;5.55;3.13;;;;;;;;;;6217911;28;20022;-83
2023/06/24 02:00:16;;;;;;;5.22;3.67;;;;;;;;;;6220598;28;20544;-82
2023/06/24 02:03:17;;;;;;;6.03;3.65;;;;;;;;;;6221387;28;20072;-81
2023/06/24 02:06:18;;;;;;;7.37;3.73;;;;;;;;;;6220238;28;20032;-81
2023/06/24 02:09:19;;;;;;;5.45;4.10;;;;;;;;;;6221122;28;20531;-82
2023/06/24 02:12:20;;;;;;;7.00;3.83;;;;;;;;;;6219684;28;20127;-81
2023/06/24 02:15:21;;;;;;;7.10;4.50;;;;;;;;;;6221378;28;20030;-83
2023/06/24 02:18:23;;;;;;;6.78;3.97;;;;;;;;;;6220866;28;20300;-82
2023/06/24 02:21:23;;;;;;;8.93;4.57;;;;;;;;;;6220430;28;20484;-80
2023/06/24 02:24:23;;;;;;;7.60;4.40;;;;;;;;;;6220349;28;20040;-83
2023/06/24 02:27:24;;;;;;;6.83;4.03;;;;;;;;;;6220427;28;20408;-83
2023/06/24 02:30:24;;;;;;;7.83;4.57;;;;;;;;;;6218181;28;20025;-81
2023/06/24 02:33:26;;;;;;;6.83;5.00;;;;;;;;;;6212734;28;20033;-84
2023/06/24 02:36:26;;;;;;;10.35;4.90;;;;;;;;;;6219210;28;20056;-83
2023/06/24 02:39:26;;;;;;;11.33;4.67;;;;;;;;;;6220397;28;20030;-83
2023/06/24 02:42:26;;;;;;;7.17;4.07;;;;;;;;;;6217551;28;20034;-83
2023/06/24 02:45:27;;;;;;;13.30;4.82;;;;;;;;;;6219150;28;20057;-81
2023/06/24 02:48:29;;;;;;;8.70;4.33;;;;;;;;;;6219526;28;20034;-81
2023/06/24 02:51:30;;;;;;;7.68;4.75;;;;;;;;;;6220289;28;20117;-81
2023/06/24 02:54:30;;;;;;;7.80;5.10;;;;;;;;;;6219290;28;20033;-84
2023/06/24 02:57:30;;;;;;;12.43;7.13;;;;;;;;;;6219185;28;20018;-83
2023/06/24 03:00:33;;;;;;;13.60;7.53;;;;;;;;;;6214129;28;20680;-83
2023/06/24 03:03:34;;;;;;;12.38;7.65;;;;;;;;;;6218228;28;20416;-74
2023/06/24 03:06:36;;;;;;;10.98;6.10;;;;;;;;;;6219136;28;20024;-75
2023/06/24 03:09:37;;;;;;;11.32;5.95;;;;;;;;;;6202006;28;20050;-74
2023/06/24 03:12:37;;;;;;;7.30;3.97;;;;;;;;;;6219213;28;20403;-75
2023/06/24 03:15:37;;;;;;;6.90;4.27;;;;;;;;;;6200751;28;20077;-75
2023/06/24 03:18:39;;;;;;;7.25;4.22;;;;;;;;;;6213749;28;20049;-74
2023/06/24 03:21:39;;;;;;;4.10;3.30;;;;;;;;;;6218773;28;20889;-74
2023/06/24 03:24:39;;;;;;;10.75;4.88;;;;;;;;;;6218538;28;20472;-74
2023/06/24 03:27:39;;;;;;;11.82;4.57;;;;;;;;;;6218267;28;20436;-75
2023/06/24 03:30:39;;;;;;;10.85;7.28;;;;;;;;;;6218850;28;20026;-74
2023/06/24 03:33:44;;;;;;;10.43;5.20;;;;;;;;;;6218006;28;20432;-74
2023/06/24 03:36:44;;;;;;;8.77;5.78;;;;;;;;;;6218787;28;20022;-74
2023/06/24 03:39:45;;;;;;;8.07;5.30;;;;;;;;;;6217969;28;20392;-74
2023/06/24 03:42:45;;;;;;;8.33;5.37;;;;;;;;;;6211575;28;20049;-74
2023/06/24 03:45:45;;;;;;;9.23;5.23;;;;;;;;;;6218704;28;20021;-74
2023/06/24 03:48:46;;;;;;;9.60;6.20;;;;;;;;;;6218049;28;20029;-74
2023/06/24 03:51:46;;;;;;;12.57;6.85;;;;;;;;;;6197186;28;20065;-75
2023/06/24 03:54:46;;;;;;;10.93;7.27;;;;;;;;;;6217899;28;20026;-74
2023/06/24 03:57:47;;;;;;;15.03;7.10;;;;;;;;;;6212920;28;20017;-74
2023/06/24 04:00:49;;;;;;;13.87;7.57;;;;;;;;;;6215870;28;20053;-74
2023/06/24 04:03:49;;;;;;;14.93;8.48;;;;;;;;;;6216342;28;20229;-74
2023/06/24 04:06:49;;;;;;;21.55;13.70;;;;;;;;;;6215769;28;20025;-74
2023/06/24 04:09:49;;;;;;;25.88;15.63;;;;;;;;;;6215219;28;20044;-74
2023/06/24 04:12:50;;;;;;;25.13;13.85;;;;;;;;;;6214712;28;20077;-81
2023/06/24 04:15:50;;;;;;;24.47;15.20;;;;;;;;;;6218485;28;20033;-82
2023/06/24 04:18:50;;;;;;;22.13;15.43;;;;;;;;;;6214594;28;20531;-81
2023/06/24 04:21:50;;;;;;;26.42;17.60;;;;;;;;;;6200627;28;20018;-79
2023/06/24 04:24:50;;;;;;;38.60;21.95;;;;;;;;;;6216218;28;20852;-81
2023/06/24 04:27:50;;;;;;;36.47;22.10;;;;;;;;;;6212489;28;20046;-81
2023/06/24 04:30:51;;;;;;;33.92;21.17;;;;;;;;;;6217970;28;20030;-80
2023/06/24 04:33:51;;;;;;;34.20;21.87;;;;;;;;;;6217661;28;20690;-81
2023/06/24 04:36:51;;;;;;;36.40;25.93;;;;;;;;;;6217003;28;20041;-82
2023/06/24 04:39:52;;;;;;;40.38;25.00;;;;;;;;;;6217886;28;20013;-81
2023/06/24 04:42:52;;;;;;;35.92;24.65;;;;;;;;;;6220888;28;20485;-82
2023/06/24 04:45:54;;;;;;;32.10;21.70;;;;;;;;;;6217721;28;20018;-80
2023/06/24 04:48:55;;;;;;;34.92;22.25;;;;;;;;;;6214634;28;20480;-82
2023/06/24 04:51:55;;;;;;;35.67;21.77;;;;;;;;;;6212657;28;20033;-81
2023/06/24 04:54:55;;;;;;;33.45;20.13;;;;;;;;;;6222678;28;20060;-80
2023/06/24 04:57:55;;;;;;;33.50;21.67;;;;;;;;;;6222035;28;20416;-82
2023/06/24 05:00:55;;;;;;;29.73;17.83;;;;;;;;;;6222591;28;20050;-79
2023/06/24 05:03:56;;;;;;;32.57;18.90;;;;;;;;;;6220008;28;20022;-78
2023/06/24 05:06:56;;;;;;;29.73;19.60;;;;;;;;;;6221904;28;20022;-79
2023/06/24 05:09:56;;;;;;;27.55;19.13;;;;;;;;;;6220713;28;20029;-78
2023/06/24 05:12:56;;;;;;;35.10;20.70;;;;;;;;;;6203688;28;20026;-79
2023/06/24 05:15:56;;;;;;;36.60;25.40;;;;;;;;;;6219579;28;20021;-80
2023/06/24 05:18:56;;;;;;;33.50;22.23;;;;;;;;;;6221779;28;20022;-79
2023/06/24 05:21:57;;;;;;;32.67;19.63;;;;;;;;;;6200335;28;20489;-80
2023/06/24 05:24:57;;;;;;;36.37;20.70;;;;;;;;;;6213064;28;20026;-80
2023/06/24 05:27:57;;;;;;;30.53;20.07;;;;;;;;;;6220422;28;20042;-80
2023/06/24 05:30:57;;;;;;;36.37;21.23;;;;;;;;;;6220820;28;20567;-80
2023/06/24 05:33:57;;;;;;;28.33;20.23;;;;;;;;;;6219376;28;20026;-79
2023/06/24 05:36:58;;;;;;;27.42;18.08;;;;;;;;;;6220240;28;20026;-79
2023/06/24 05:40:01;;;;;;;30.47;18.87;;;;;;;;;;6219004;28;20464;-80
2023/06/24 05:43:02;;;;;;;29.95;18.02;;;;;;;;;;6218967;28;20040;-74
2023/06/24 05:46:04;;;;;;;31.00;19.92;;;;;;;;;;6220820;28;20018;-74
2023/06/24 05:49:04;;;;;;;24.98;18.52;;;;;;;;;;6215659;28;20034;-74
2023/06/24 05:52:05;;;;;;;33.00;21.63;;;;;;;;;;6213263;28;20038;-74
2023/06/24 05:55:05;;;;;;;31.30;19.53;;;;;;;;;;6219775;28;20030;-74
2023/06/24 05:58:05;;;;;;;34.90;19.87;;;;;;;;;;6215206;28;20072;-73
2023/06/24 06:01:05;;;;;;;35.22;20.85;;;;;;;;;;6201850;28;20048;-73
2023/06/24 06:04:06;;;;;;;33.73;19.80;;;;;;;;;;6217251;28;20097;-73
2023/06/24 06:07:06;;;;;;;28.10;19.50;;;;;;;;;;6217933;28;20018;-74
2023/06/24 06:10:06;;;;;;;29.27;17.27;;;;;;;;;;6219885;28;20045;-73
2023/06/24 06:13:07;;;;;;;28.67;18.63;;;;;;;;;;6219835;28;20026;-74
2023/06/24 06:16:07;;;;;;;34.67;20.90;;;;;;;;;;6218818;28;20457;-73
2023/06/24 06:19:07;;;;;;;31.77;18.70;;;;;;;;;;6199737;28;20022;-73
2023/06/24 06:22:07;;;;;;;33.80;20.93;;;;;;;;;;6220369;28;20026;-73
2023/06/24 06:25:08;;;;;;;31.43;19.73;;;;;;;;;;6213960;28;20045;-73
2023/06/24 06:28:08;;;;;;;28.03;21.03;;;;;;;;;;6219337;28;20404;-73
2023/06/24 06:31:08;;;;;;;21.43;17.10;;;;;;;;;;6212675;28;20144;-73
2023/06/24 06:34:09;;;;;;;21.77;15.23;;;;;;;;;;6216087;28;20040;-73
2023/06/24 06:37:09;;;;;;;19.53;14.27;;;;;;;;;;6219179;28;20061;-73
2023/06/24 06:40:09;;;;;;;18.93;12.97;;;;;;;;;;6219319;28;20076;-73
2023/06/24 06:43:09;;;;;;;18.20;12.90;;;;;;;;;;6201005;28;20042;-73
2023/06/24 06:46:09;;;;;;;19.27;13.03;;;;;;;;;;6217079;28;20026;-74
2023/06/24 06:49:10;;;;;;;23.15;13.07;;;;;;;;;;6219314;28;20040;-73
2023/06/24 06:52:10;;;;;;;19.70;13.83;;;;;;;;;;6218175;28;20079;-79
2023/06/24 06:55:10;;;;;;;17.73;11.93;;;;;;;;;;6220066;28;20465;-79
2023/06/24 06:58:10;;;;;;;20.80;12.93;;;;;;;;;;6219572;28;20053;-81
2023/06/24 07:01:10;;;;;;;15.63;11.80;;;;;;;;;;6219182;28;20025;-80
2023/06/24 07:04:11;;;;;;;13.93;11.30;;;;;;;;;;6219908;28;20026;-80
2023/06/24 07:07:11;;;;;;;18.13;11.63;;;;;;;;;;6219305;28;20045;-79
2023/06/24 07:10:13;;;;;;;16.60;10.30;;;;;;;;;;6219527;28;20018;-80
2023/06/24 07:13:13;;;;;;;14.15;9.95;;;;;;;;;;6195470;28;20029;-80
2023/06/24 07:16:13;;;;;;;15.30;9.17;;;;;;;;;;6217568;28;20484;-81
2023/06/24 07:19:13;;;;;;;16.55;9.93;;;;;;;;;;6214501;28;20026;-79
2023/06/24 07:22:14;;;;;;;14.38;9.70;;;;;;;;;;6201131;28;20526;-79
2023/06/24 07:25:15;;;;;;;11.47;7.70;;;;;;;;;;6218788;28;20104;-80
2023/06/24 07:28:15;;;;;;;13.13;6.95;;;;;;;;;;6216306;28;20046;-79
2023/06/24 07:31:15;;;;;;;10.25;7.10;;;;;;;;;;6217900;28;20164;-79
2023/06/24 07:34:16;;;;;;;11.50;7.43;;;;;;;;;;6218470;28;20021;-81
2023/06/24 07:37:16;;;;;;;12.37;6.87;;;;;;;;;;6218281;28;20479;-80
2023/06/24 07:40:16;;;;;;;12.10;6.95;;;;;;;;;;6218852;28;20022;-82
2023/06/24 07:43:16;;;;;;;13.07;6.57;;;;;;;;;;6218620;28;20109;-82
2023/06/24 07:46:16;;;;;;;22.33;7.70;;;;;;;;;;6218984;28;20045;-83
2023/06/24 07:49:17;;;;;;;12.50;6.60;;;;;;;;;;6212553;28;20116;-81
2023/06/24 07:52:18;;;;;;;8.95;6.53;;;;;;;;;;6216107;28;20021;-81
2023/06/24 07:55:18;;;;;;;10.87;5.73;;;;;;;;;;6219308;28;20088;-82
2023/06/24 07:58:19;;;;;;;13.75;7.03;;;;;;;;;;6218755;28;20058;-80
2023/06/24 08:01:19;;;;;;;11.48;6.68;;;;;;;;;;6216698;28;20017;-81
2023/06/24 08:04:19;;;;;;;8.90;5.67;;;;;;;;;;6218212;28;20096;-73
2023/06/24 08:07:19;;;;;;;11.57;5.32;;;;;;;;;;6217526;28;20021;-73
2023/06/24 08:10:20;;;;;;;22.33;7.57;;;;;;;;;;6215224;28;20040;-73
2023/06/24 08:13:20;;;;;;;14.90;5.90;;;;;;;;;;6217056;28;20104;-73
2023/06/24 08:16:20;;;;;;;11.87;6.87;;;;;;;;;;6217478;28;20100;-74
2023/06/24 08:19:21;;;;;;;11.67;5.67;;;;;;;;;;6217840;28;20022;-73
2023/06/24 08:22:21;;;;;;;9.97;5.77;;;;;;;;;;6218102;28;20021;-73
2023/06/24 08:25:21;;;;;;;10.13;5.77;;;;;;;;;;6218322;28;20018;-73
2023/06/24 08:28:21;;;;;;;9.83;5.97;;;;;;;;;;6217818;28;20403;-73
2023/06/24 08:31:24;;;;;;;14.77;6.83;;;;;;;;;;6213574;28;20100;-72
2023/06/24 08:34:24;;;;;;;11.13;6.60;;;;;;;;;;6217781;28;20044;-73
2023/06/24 08:37:24;;;;;;;9.20;5.68;;;;;;;;;;6218268;28;20050;-72
2023/06/24 08:40:24;;;;;;;7.80;5.33;;;;;;;;;;6217602;28;20026;-74
2023/06/24 08:43:24;;;;;;;11.83;6.27;;;;;;;;;;6217872;28;20022;-73
2023/06/24 08:46:25;;;;;;;9.53;5.63;;;;;;;;;;6199533;28;20048;-73
2023/06/24 08:49:28;;;;;;;9.48;6.93;;;;;;;;;;6217533;28;20101;-73
2023/06/24 08:52:29;;;;;;;12.65;7.20;;;;;;;;;;6217092;28;20026;-73
2023/06/24 08:55:29;;;;;;;;;;;;;;;;;;6217701;28;20034;-73
2023/06/24 08:58:29;;;;;;;10.68;7.35;;;;;;;;;;6215966;28;19916;-74
2023/06/24 09:01:30;;;;;;;13.97;8.80;;;;;;;;;;6219702;28;20030;-78
2023/06/24 09:04:30;;;;;;;11.27;7.55;;;;;;;;;;6215613;28;20076;-80
2023/06/24 09:07:30;;;;;;;10.80;7.67;;;;;;;;;;6212348;28;20760;-78
2023/06/24 09:10:32;;;;;;;13.27;8.57;;;;;;;;;;6195805;28;20030;-81
2023/06/24 09:13:36;;;;;;;11.90;7.68;;;;;;;;;;6212328;28;20054;-81
2023/06/24 09:16:36;;;;;;;24.80;8.43;;;;;;;;;;6211712;28;20479;-79
2023/06/24 09:19:36;;;;;;;10.80;7.35;;;;;;;;;;6214515;28;20034;-78
2023/06/24 09:22:39;;;;;;;12.50;8.10;;;;;;;;;;6217832;28;20020;-79
2023/06/24 09:25:40;;;;;;;12.98;7.43;;;;;;;;;;6212279;28;20033;-79
2023/06/24 09:28:40;;;;;;;12.53;7.97;;;;;;;;;;6216580;28;20419;-78
2023/06/24 09:31:50;;;;;;;9.80;7.00;;;;;;;;;;6213013;28;20164;-81
2023/06/24 09:34:50;;;;;;;12.65;8.15;;;;;;;;;;6211618;28;20452;-81
2023/06/24 09:37:54;;;;;;;9.23;6.47;;;;;;;;;;6217306;28;20372;-81
2023/06/24 09:41:01;;;;;;;12.63;7.00;;;;;;;;;;6221520;28;20443;-80
2023/06/24 09:44:01;;;;;;;11.13;6.15;;;;;;;;;;6221797;28;20024;-79
2023/06/24 09:47:02;;;;;;;11.90;7.33;;;;;;;;;;6221259;28;20022;-80
2023/06/24 09:50:02;;;;;;;10.30;6.70;;;;;;;;;;6221595;28;20029;-80
2023/06/24 09:53:02;;;;;;;10.90;6.63;;;;;;;;;;6221106;28;20030;-80
2023/06/24 09:56:03;;;;;;;8.70;6.07;;;;;;;;;;6221326;28;20026;-81
2023/06/24 09:59:04;;;;;;;12.32;6.15;;;;;;;;;;6218179;28;20392;-80
2023/06/24 10:02:06;;;;;;;8.73;5.80;;;;;;;;;;6216276;28;20046;-80
2023/06/24 10:05:06;;;;;;;8.52;5.68;;;;;;;;;;6215541;28;20057;-80
2023/06/24 10:08:06;;;;;;;9.33;5.87;;;;;;;;;;6215296;28;20480;-79
2023/06/24 10:11:06;;;;;;;8.97;6.40;;;;;;;;;;6220682;28;20026;-79
2023/06/24 10:14:07;;;;;;;7.95;5.32;;;;;;;;;;6221089;28;20152;-79
2023/06/24 10:17:07;;;;;;;13.03;6.37;;;;;;;;;;6220684;28;20040;-80
2023/06/24 10:20:07;;;;;;;9.43;6.20;;;;;;;;;;6220555;28;20022;-79
2023/06/24 10:23:08;;;;;;;10.43;6.83;;;;;;;;;;6220594;28;20029;-80
2023/06/24 10:26:09;;;;;;;12.13;6.27;;;;;;;;;;6219124;28;20496;-79
2023/06/24 10:29:10;;;;;;;10.68;7.20;;;;;;;;;;6219409;28;20053;-79
2023/06/24 10:32:10;;;;;;;28.30;9.32;;;;;;;;;;6199303;28;20500;-81
2023/06/24 10:35:23;;;;;;;11.03;6.77;;;;;;;;;;6219058;28;20041;-81
2023/06/24 10:38:24;;;;;;;9.77;6.78;;;;;;;;;;6214958;28;20029;-80
2023/06/24 10:41:25;;;;;;;10.73;7.17;;;;;;;;;;6219348;28;20472;-80
2023/06/24 10:44:25;;;;;;;16.27;7.22;;;;;;;;;;6213920;28;20014;-82
2023/06/24 10:47:26;;;;;;;9.60;6.43;;;;;;;;;;6218620;28;20172;-81
2023/06/24 10:50:26;;;;;;;9.18;6.72;;;;;;;;;;6213486;28;20544;-79
2023/06/24 10:53:27;;;;;;;14.70;7.93;;;;;;;;;;6215173;28;20034;-80
2023/06/24 10:56:30;;;;;;;21.85;7.75;;;;;;;;;;6219474;28;20770;-80
2023/06/24 10:59:46;;;;;;;9.15;6.70;;;;;;;;;;6218674;28;20018;-79
2023/06/24 11:02:46;;;;;;;10.55;6.53;;;;;;;;;;6201517;28;20020;-80
2023/06/24 11:05:48;;;;;;;11.20;6.77;;;;;;;;;;6219317;28;20029;-80
2023/06/24 11:08:48;;;;;;;12.95;7.25;;;;;;;;;;6219824;28;20132;-81
2023/06/24 11:11:48;;;;;;;12.33;7.73;;;;;;;;;;6219600;28;20022;-79
2023/06/24 11:14:48;;;;;;;12.30;6.88;;;;;;;;;;6219977;28;20037;-80
2023/06/24 11:17:50;;;;;;;12.57;6.87;;;;;;;;;;6219391;28;20013;-79
2023/06/24 11:20:53;;;;;;;13.77;7.05;;;;;;;;;;6202893;28;20041;-79
2023/06/24 11:23:53;;;;;;;10.23;7.22;;;;;;;;;;6219383;28;20408;-82
2023/06/24 11:26:54;;;;;;;13.43;7.80;;;;;;;;;;6219140;28;20028;-81
2023/06/24 11:29:55;;;;;;;9.40;6.93;;;;;;;;;;6218805;28;20037;-81
2023/06/24 11:32:55;;;;;;;11.00;7.20;;;;;;;;;;6217357;28;20030;-80
2023/06/24 11:35:55;;;;;;;12.15;7.85;;;;;;;;;;6218553;28;20109;-79
2023/06/24 11:38:55;;;;;;;10.33;7.47;;;;;;;;;;6213652;28;20033;-81
2023/06/24 11:41:57;;;;;;;11.63;6.67;;;;;;;;;;6213951;28;20022;-80
2023/06/24 11:45:04;;;;;;;9.80;6.93;;;;;;;;;;6214646;28;20484;-80
2023/06/24 11:48:04;;;;;;;11.00;5.55;;;;;;;;;;6217272;28;20474;-82
2023/06/24 11:51:11;;;;;;;15.30;6.63;;;;;;;;;;6198505;28;20034;-81
2023/06/24 11:54:11;;;;;;;8.05;6.72;;;;;;;;;;6189075;28;20544;-80
2023/06/24 11:57:12;;;;;;;12.07;6.65;;;;;;;;;;6216963;28;20022;-81
2023/06/24 12:00:13;;;;;;;16.13;7.70;;;;;;;;;;6214954;28;20506;-81
2023/06/24 12:03:13;;;;;;;15.07;7.43;;;;;;;;;;6206353;28;20034;-82
2023/06/24 12:06:13;;;;;;;9.70;6.93;;;;;;;;;;6215895;28;20111;-82
2023/06/24 12:09:13;;;;;;;16.35;6.90;;;;;;;;;;6213578;28;20037;-81
2023/06/24 12:12:13;;;;;;;10.50;6.87;;;;;;;;;;6217102;28;20542;-80
2023/06/24 12:15:14;;;;;;;13.13;7.27;;;;;;;;;;6214697;28;20037;-81
2023/06/24 12:18:14;;;;;;;14.27;7.17;;;;;;;;;;6216789;28;20014;-80
2023/06/24 12:21:14;;;;;;;8.13;6.67;;;;;;;;;;6199006;28;20069;-82
2023/06/24 12:24:14;;;;;;;12.57;7.60;;;;;;;;;;6217410;28;20029;-81
2023/06/24 12:27:15;;;;;;;16.17;7.70;;;;;;;;;;6211075;28;20034;-81
2023/06/24 12:30:16;;;;;;;11.45;7.88;;;;;;;;;;6217171;28;20038;-81
2023/06/24 12:33:18;;;;;;;14.60;7.25;;;;;;;;;;6214921;28;20065;-81
2023/06/24 12:36:19;;;;;;;8.57;6.43;;;;;;;;;;6216635;28;20532;-81
2023/06/24 12:39:19;;;;;;;12.50;7.53;;;;;;;;;;6208454;28;20033;-82
2023/06/24 12:42:19;;;;;;;12.48;7.32;;;;;;;;;;6217116;28;20022;-75
2023/06/24 12:45:19;;;;;;;11.57;6.90;;;;;;;;;;6215108;28;20045;-75
2023/06/24 12:48:20;;;;;;;17.00;9.23;;;;;;;;;;6216209;28;20036;-75
2023/06/24 12:51:20;;;;;;;9.33;5.93;;;;;;;;;;6198356;28;20063;-75
2023/06/24 12:54:20;;;;;;;14.27;6.47;;;;;;;;;;6218106;28;20033;-75
2023/06/24 12:57:20;;;;;;;7.80;5.40;;;;;;;;;;6216849;28;20061;-75
2023/06/24 13:00:21;;;;;;;10.57;5.53;;;;;;;;;;6214532;28;20030;-75
2023/06/24 13:03:21;;;;;;;14.13;6.80;;;;;;;;;;6203623;28;20069;-75
2023/06/24 13:06:21;;;;;;;19.63;5.73;;;;;;;;;;6210924;28;20029;-74
2023/06/24 13:09:21;;;;;;;7.07;5.43;;;;;;;;;;6208309;28;20386;-74
2023/06/24 13:12:22;;;;;;;8.17;5.10;;;;;;;;;;6214046;28;20440;-75
2023/06/24 13:15:23;;;;;;;7.77;5.23;;;;;;;;;;6220221;28;20026;-75
2023/06/24 13:18:23;;;;;;;7.07;4.88;;;;;;;;;;6221727;28;20025;-74
2023/06/24 13:21:23;;;;;;;8.40;5.53;;;;;;;;;;6221626;28;20420;-75
2023/06/24 13:24:25;;;;;;;7.23;4.97;;;;;;;;;;6216322;28;20101;-74
2023/06/24 13:27:25;;;;;;;7.65;5.60;;;;;;;;;;6221381;28;20034;-75
2023/06/24 13:30:25;;;;;;;8.57;5.22;;;;;;;;;;6217991;28;20037;-74
2023/06/24 13:33:25;;;;;;;8.20;5.00;;;;;;;;;;6218139;28;20097;-74
2023/06/24 13:36:31;;;;;;;9.43;5.40;;;;;;;;;;6221575;28;20033;-74
2023/06/24 13:39:32;;;;;;;9.07;5.10;;;;;;;;;;6221267;28;20006;-74
2023/06/24 13:42:33;;;;;;;8.82;6.22;;;;;;;;;;6220963;28;20080;-75
2023/06/24 13:45:33;;;;;;;13.27;6.43;;;;;;;;;;6219404;28;20026;-75
2023/06/24 13:48:33;;;;;;;9.27;5.73;;;;;;;;;;6217931;28;20518;-74
2023/06/24 13:51:33;;;;;;;8.60;4.30;;;;;;;;;;6223495;28;20022;-81
2023/06/24 13:54:35;;;;;;;10.37;5.07;;;;;;;;;;6236010;28;20201;-80
2023/06/24 13:57:35;;;;;;;8.18;5.45;;;;;;;;;;6229514;28;20041;-79
2023/06/24 14:00:35;;;;;;;12.53;5.73;;;;;;;;;;6231976;28;20469;-79
2023/06/24 14:03:35;;;;;;;8.47;4.70;;;;;;;;;;6230089;28;20018;-80
2023/06/24 14:06:36;;;;;;;15.43;5.97;;;;;;;;;;6219503;28;20045;-81
2023/06/24 14:09:37;;;;;;;9.87;4.30;;;;;;;;;;6215903;28;20017;-81
2023/06/24 14:12:37;;;;;;;10.32;5.20;;;;;;;;;;6219627;28;20125;-81
2023/06/24 14:15:37;;;;;;;8.47;4.43;;;;;;;;;;6220699;28;20799;-81
2023/06/24 14:18:38;;;;;;;8.40;5.60;;;;;;;;;;6203493;28;20211;-82
2023/06/24 14:21:38;;;;;;;8.13;4.97;;;;;;;;;;6215133;28;20478;-81
2023/06/24 14:24:38;;;;;;;8.13;4.37;;;;;;;;;;6202567;28;20072;-80
2023/06/24 14:27:38;;;;;;;12.27;4.60;;;;;;;;;;6219745;28;20103;-80
2023/06/24 14:30:38;;;;;;;6.75;4.07;;;;;;;;;;6220429;28;20065;-81
2023/06/24 14:33:39;;;;;;;9.63;4.00;;;;;;;;;;6218425;28;20084;-80
2023/06/24 14:36:39;;;;;;;9.07;4.82;;;;;;;;;;6218554;28;20030;-82
2023/06/24 14:39:40;;;;;;;15.50;4.20;;;;;;;;;;6220009;28;20443;-82
2023/06/24 14:42:40;;;;;;;7.13;4.30;;;;;;;;;;6220129;28;20465;-82
2023/06/24 14:45:40;;;;;;;6.07;3.97;;;;;;;;;;6219343;28;20026;-83
2023/06/24 14:48:40;;;;;;;7.57;4.17;;;;;;;;;;6219522;28;20040;-80
2023/06/24 14:51:41;;;;;;;7.78;3.63;;;;;;;;;;6216024;28;20030;-82
2023/06/24 14:54:41;;;;;;;8.27;4.07;;;;;;;;;;6217985;28;20117;-82
2023/06/24 14:57:41;;;;;;;10.80;4.90;;;;;;;;;;6219122;28;20017;-83
2023/06/24 15:00:41;;;;;;;7.20;4.83;;;;;;;;;;6220252;28;20026;-81
2023/06/24 15:03:41;;;;;;;7.55;4.03;;;;;;;;;;6217947;28;20022;-81
2023/06/24 15:06:42;;;;;;;6.18;4.07;;;;;;;;;;6219235;28;20029;-81
2023/06/24 15:09:43;;;;;;;10.97;4.37;;;;;;;;;;6219130;28;20021;-80
2023/06/24 15:12:43;;;;;;;8.90;5.28;;;;;;;;;;6220479;28;20022;-81
2023/06/24 15:15:43;;;;;;;8.57;4.70;;;;;;;;;;6204309;28;20034;-81
2023/06/24 15:18:45;;;;;;;6.30;4.03;;;;;;;;;;6219826;28;20464;-80
2023/06/24 15:21:47;;;;;;;7.30;4.60;;;;;;;;;;6218215;28;20454;-82
2023/06/24 15:24:47;;;;;;;7.23;4.40;;;;;;;;;;6219687;28;20021;-80
2023/06/24 15:27:47;;;;;;;7.50;4.10;;;;;;;;;;6219109;28;21091;-81
2023/06/24 15:30:47;;;;;;;7.67;4.17;;;;;;;;;;6219594;28;20523;-80
2023/06/24 15:33:48;;;;;;;7.03;3.60;;;;;;;;;;6218786;28;20021;-81
2023/06/24 15:36:48;;;;;;;5.68;3.72;;;;;;;;;;6218064;28;20029;-80
2023/06/24 15:39:48;;;;;;;8.60;4.20;;;;;;;;;;6218654;28;20831;-82
2023/06/24 15:42:48;;;;;;;7.30;4.10;;;;;;;;;;6218562;28;20022;-82
2023/06/24 15:45:48;;;;;;;9.30;4.43;;;;;;;;;;6216690;28;20095;-81
2023/06/24 15:48:49;;;;;;;9.07;5.17;;;;;;;;;;6217669;28;20053;-81
2023/06/24 15:51:49;;;;;;;6.13;3.72;;;;;;;;;;6218785;28;20536;-79
2023/06/24 15:54:50;;;;;;;8.97;4.50;;;;;;;;;;6211977;28;20034;-79
2023/06/24 15:57:50;;;;;;;6.60;4.47;;;;;;;;;;6217774;28;20049;-80
2023/06/24 16:00:50;;;;;;;7.57;4.23;;;;;;;;;;6218055;28;20033;-80
2023/06/24 16:03:50;;;;;;;9.53;5.17;;;;;;;;;;6218079;28;20038;-85
2023/06/24 16:06:51;;;;;;;5.70;3.77;;;;;;;;;;6215535;28;20225;-83
2023/06/24 16:09:52;;;;;;;6.60;3.63;;;;;;;;;;6215120;28;20468;-80
2023/06/24 16:12:52;;;;;;;8.65;4.35;;;;;;;;;;6212977;28;20464;-81
2023/06/24 16:15:52;;;;;;;6.63;4.33;;;;;;;;;;6217595;28;20121;-81
2023/06/24 16:18:52;;;;;;;8.70;3.90;;;;;;;;;;6213621;28;20032;-81
2023/06/24 16:21:52;;;;;;;6.90;3.95;;;;;;;;;;6218089;28;20728;-83
2023/06/24 16:24:53;;;;;;;7.70;4.30;;;;;;;;;;6218258;28;20133;-80
2023/06/24 16:27:53;;;;;;;7.27;4.20;;;;;;;;;;6218409;28;20068;-82
2023/06/24 16:30:53;;;;;;;9.40;4.88;;;;;;;;;;6217906;28;20029;-79
2023/06/24 16:33:53;;;;;;;13.07;4.13;;;;;;;;;;6217908;28;20026;-81
2023/06/24 16:36:53;;;;;;;5.82;3.72;;;;;;;;;;6217544;28;20116;-81
2023/06/24 16:39:54;;;;;;;9.95;4.30;;;;;;;;;;6218386;28;20026;-81
2023/06/24 16:42:54;;;;;;;6.55;4.43;;;;;;;;;;6217834;28;20404;-80
2023/06/24 16:45:54;;;;;;;8.63;3.80;;;;;;;;;;6197276;28;20052;-80
2023/06/24 16:48:54;;;;;;;6.27;4.57;;;;;;;;;;6204017;28;20025;-80
2023/06/24 16:51:54;;;;;;;7.23;4.20;;;;;;;;;;6217315;28;20030;-80
2023/06/24 16:54:56;;;;;;;8.00;3.92;;;;;;;;;;6202253;28;20033;-79
2023/06/24 16:57:56;;;;;;;6.95;4.32;;;;;;;;;;6222125;28;20017;-81
2023/06/24 17:00:56;;;;;;;5.10;3.40;;;;;;;;;;6222302;28;20053;-81
2023/06/24 17:03:56;;;;;;;6.53;3.63;;;;;;;;;;6223123;28;20022;-80
2023/06/24 17:06:56;;;;;;;7.23;4.40;;;;;;;;;;6222577;28;20021;-80
2023/06/24 17:09:57;;;;;;;6.10;4.00;;;;;;;;;;6221573;28;20492;-80
2023/06/24 17:12:57;;;;;;;6.82;4.13;;;;;;;;;;6221801;28;20057;-80
2023/06/24 17:15:57;;;;;;;7.10;4.15;;;;;;;;;;6222144;28;20055;-82
2023/06/24 17:18:57;;;;;;;8.03;4.13;;;;;;;;;;6221686;28;20537;-81
2023/06/24 17:21:57;;;;;;;5.37;3.57;;;;;;;;;;6222118;28;20079;-74
2023/06/24 17:24:58;;;;;;;6.30;4.25;;;;;;;;;;6215442;28;20033;-74
2023/06/24 17:27:58;;;;;;;9.90;4.20;;;;;;;;;;6199482;28;20046;-75
2023/06/24 17:30:58;;;;;;;8.07;3.87;;;;;;;;;;6216295;28;20093;-75
2023/06/24 17:33:58;;;;;;;7.93;4.70;;;;;;;;;;6221478;28;20025;-82
2023/06/24 17:36:59;;;;;;;7.37;4.70;;;;;;;;;;6218269;28;20035;-80
2023/06/24 17:39:59;;;;;;;10.18;5.13;;;;;;;;;;6216180;28;20033;-81
2023/06/24 17:42:59;;;;;;;9.37;5.47;;;;;;;;;;6221394;28;20022;-82
2023/06/24 17:45:59;;;;;;;7.73;4.23;;;;;;;;;;6202864;28;20022;-81
2023/06/24 17:48:59;;;;;;;8.50;4.10;;;;;;;;;;6220382;28;20021;-79
2023/06/24 17:52:00;;;;;;;6.70;4.20;;;;;;;;;;6210595;28;20400;-81